Time;durP1;ratioP1;P1;durP2;ratioP2;P2;SDS_P1;SDS_P2;PMS_P1;PMS_P2;Temp;Humidity;BMP_temperature;BMP_pressure;BME280_temperature;BME280_humidity;BME280_pressure;Samples;Min_cycle;Max_cycle;Signal;HPM_P1;HPM_P2
2022/04/07 00:01:08;;;;;;;10.07;6.68;;;10.10;99.90;;;;;;5129194;27;20128;-69
2022/04/07 00:03:34;;;;;;;12.10;6.55;;;9.90;99.90;;;;;;5128635;27;20051;-69
2022/04/07 00:06:00;;;;;;;12.10;7.13;;;9.90;99.90;;;;;;5100594;28;20063;-69
2022/04/07 00:08:26;;;;;;;9.63;6.55;;;10.00;99.90;;;;;;5141472;27;20550;-69
2022/04/07 00:10:52;;;;;;;9.32;6.05;;;9.90;99.90;;;;;;5135967;27;20103;-69
2022/04/07 00:13:18;;;;;;;9.50;6.00;;;10.00;99.90;;;;;;5143548;27;20063;-69
2022/04/07 00:15:44;;;;;;;7.38;5.15;;;9.90;99.90;;;;;;5126798;27;20573;-69
2022/04/07 00:18:10;;;;;;;12.13;5.75;;;9.90;99.90;;;;;;5127445;27;20039;-69
2022/04/07 00:20:36;;;;;;;10.52;6.57;;;10.00;99.90;;;;;;5147372;27;20039;-69
2022/04/07 00:23:03;;;;;;;9.55;5.93;;;9.70;99.90;;;;;;5130577;27;20050;-69
2022/04/07 00:25:29;;;;;;;14.40;5.88;;;9.70;99.90;;;;;;5110612;27;20047;-69
2022/04/07 00:27:55;;;;;;;14.68;6.88;;;9.60;99.90;;;;;;5128631;27;20092;-69
2022/04/07 00:30:21;;;;;;;11.48;6.15;;;9.80;99.90;;;;;;5131445;27;20051;-69
2022/04/07 00:32:50;;;;;;;16.80;6.40;;;9.70;99.90;;;;;;5128177;27;20043;-69
2022/04/07 00:35:17;;;;;;;13.77;6.77;;;9.70;99.90;;;;;;5128571;27;20070;-70
2022/04/07 00:37:44;;;;;;;16.48;6.43;;;9.50;99.90;;;;;;5147162;27;20059;-69
2022/04/07 00:40:12;;;;;;;12.85;7.35;;;9.20;99.90;;;;;;5149402;27;20111;-69
2022/04/07 00:42:46;;;;;;;14.20;8.40;;;9.10;99.90;;;;;;5150395;27;20043;-70
2022/04/07 00:45:12;;;;;;;13.07;7.57;;;9.10;99.90;;;;;;5134729;27;20054;-70
2022/04/07 00:47:37;;;;;;;14.63;8.15;;;9.20;99.90;;;;;;5136732;27;20126;-70
2022/04/07 00:50:03;;;;;;;15.73;9.13;;;9.00;99.90;;;;;;5140294;27;20472;-70
2022/04/07 00:52:31;;;;;;;17.38;9.30;;;9.10;99.90;;;;;;5168660;27;20074;-69
2022/04/07 00:54:57;;;;;;;15.15;10.55;;;9.20;99.90;;;;;;5147830;27;20072;-69
2022/04/07 00:57:24;;;;;;;14.02;10.20;;;9.10;99.90;;;;;;5167267;27;20456;-69
2022/04/07 00:59:50;;;;;;;13.80;10.70;;;9.00;99.90;;;;;;5148244;27;20087;-69
2022/04/07 01:02:15;;;;;;;13.15;10.07;;;9.10;99.90;;;;;;5148267;27;20130;-70
2022/04/07 01:04:41;;;;;;;14.25;11.40;;;9.10;99.90;;;;;;5146861;27;20082;-69
2022/04/07 01:07:08;;;;;;;16.15;12.27;;;9.00;99.90;;;;;;5168252;27;20107;-69
2022/04/07 01:09:34;;;;;;;15.90;13.68;;;9.20;99.90;;;;;;5148302;27;20114;-69
2022/04/07 01:12:00;;;;;;;14.90;13.00;;;9.00;99.90;;;;;;5148137;27;20061;-70
2022/04/07 01:14:26;;;;;;;15.70;12.90;;;9.30;99.90;;;;;;5147474;27;20038;-70
2022/04/07 01:16:51;;;;;;;16.98;12.50;;;9.10;99.90;;;;;;5166891;27;20043;-70
2022/04/07 01:19:18;;;;;;;13.73;9.45;;;9.40;99.90;;;;;;5130538;27;20051;-69
2022/04/07 01:21:45;;;;;;;13.75;9.02;;;9.50;99.90;;;;;;5167678;27;20042;-69
2022/04/07 01:24:12;;;;;;;14.35;11.35;;;9.10;99.90;;;;;;5149468;27;20046;-70
2022/04/07 01:26:42;;;;;;;18.67;12.68;;;9.30;99.90;;;;;;5141448;27;20046;-70
2022/04/07 01:29:13;;;;;;;17.20;13.48;;;9.00;99.90;;;;;;5147752;27;20084;-70
2022/04/07 01:31:39;;;;;;;15.93;13.13;;;9.20;99.90;;;;;;5143502;27;20081;-70
2022/04/07 01:34:11;;;;;;;15.48;12.00;;;9.30;99.90;;;;;;5130932;27;20052;-70
2022/04/07 01:36:40;;;;;;;16.92;11.65;;;9.30;99.90;;;;;;5117949;27;20513;-70
2022/04/07 01:39:08;;;;;;;13.00;10.15;;;9.20;99.90;;;;;;5143937;27;20043;-70
2022/04/07 01:41:35;;;;;;;13.25;9.65;;;9.40;99.90;;;;;;5123860;27;20063;-70
2022/04/07 01:44:03;;;;;;;11.75;9.50;;;9.30;99.90;;;;;;5127100;27;20435;-70
2022/04/07 01:46:29;;;;;;;13.40;9.23;;;9.30;99.90;;;;;;5127629;27;20055;-69
2022/04/07 01:48:58;;;;;;;12.30;8.60;;;9.40;99.90;;;;;;5145534;27;20077;-69
2022/04/07 01:51:26;;;;;;;18.25;9.93;;;9.50;99.90;;;;;;5144892;27;20295;-70
2022/04/07 01:53:53;;;;;;;12.88;8.70;;;9.40;99.90;;;;;;5127367;27;20043;-70
2022/04/07 01:56:20;;;;;;;10.45;7.30;;;9.40;99.90;;;;;;5126999;27;20455;-69
2022/04/07 01:58:47;;;;;;;9.65;6.55;;;9.40;99.90;;;;;;5145055;27;20465;-69
2022/04/07 02:01:14;;;;;;;10.98;6.88;;;9.60;99.90;;;;;;5126667;27;20039;-69
2022/04/07 02:03:40;;;;;;;12.80;7.35;;;9.40;99.90;;;;;;5127736;27;20043;-69
2022/04/07 02:06:14;;;;;;;8.55;5.63;;;9.50;99.90;;;;;;5127708;27;20059;-70
2022/04/07 02:08:40;;;;;;;9.35;5.45;;;9.40;99.90;;;;;;5145642;27;20407;-69
2022/04/07 02:11:06;;;;;;;12.25;5.65;;;9.60;99.90;;;;;;5124907;27;20077;-69
2022/04/07 02:13:33;;;;;;;8.98;5.30;;;9.50;99.90;;;;;;5126892;27;20043;-69
2022/04/07 02:16:01;;;;;;;12.15;3.97;;;9.30;99.90;;;;;;5138854;27;20066;-69
2022/04/07 02:18:27;;;;;;;6.32;4.28;;;9.40;99.90;;;;;;5126153;28;20095;-70
2022/04/07 02:20:53;;;;;;;8.30;3.90;;;9.30;99.90;;;;;;5127879;27;20039;-69
2022/04/07 02:23:18;;;;;;;8.32;3.92;;;9.00;99.90;;;;;;5127525;27;20047;-69
2022/04/07 02:25:44;;;;;;;11.18;4.00;;;9.10;99.90;;;;;;5126618;27;20051;-69
2022/04/07 02:28:10;;;;;;;11.32;4.20;;;9.30;99.90;;;;;;5144260;27;20051;-69
2022/04/07 02:30:35;;;;;;;10.25;4.07;;;9.30;99.90;;;;;;5135559;27;20047;-69
2022/04/07 02:33:01;;;;;;;9.50;3.90;;;9.30;99.90;;;;;;5142169;27;20526;-69
2022/04/07 02:35:27;;;;;;;7.38;3.42;;;9.40;99.90;;;;;;5128126;28;20047;-69
2022/04/07 02:37:52;;;;;;;6.07;3.05;;;9.30;99.90;;;;;;5154263;27;20057;-69
2022/04/07 02:40:18;;;;;;;9.45;4.35;;;9.50;99.90;;;;;;5147108;27;20050;-69
2022/04/07 02:42:44;;;;;;;10.55;5.13;;;9.40;99.90;;;;;;5128035;27;20043;-69
2022/04/07 02:45:10;;;;;;;10.60;4.70;;;9.20;99.90;;;;;;5127908;27;20082;-69
2022/04/07 02:47:40;;;;;;;12.35;5.32;;;9.20;99.90;;;;;;5164900;27;20035;-69
2022/04/07 02:50:06;;;;;;;;;;;9.40;99.90;;;;;;5147080;27;20053;-69
2022/04/07 02:52:32;;;;;;;11.25;4.28;;;9.40;99.90;;;;;;5129163;27;19940;-69
2022/04/07 02:54:58;;;;;;;13.68;5.75;;;9.50;99.90;;;;;;5146854;27;20440;-69
2022/04/07 02:57:25;;;;;;;10.20;5.10;;;9.40;99.90;;;;;;5146232;27;20042;-69
2022/04/07 02:59:52;;;;;;;12.25;4.60;;;9.40;99.90;;;;;;5164230;27;20410;-69
2022/04/07 03:02:18;;;;;;;14.27;5.28;;;9.50;99.90;;;;;;5164214;27;20054;-69
2022/04/07 03:04:43;;;;;;;14.68;5.25;;;9.40;99.90;;;;;;5145255;27;20071;-69
2022/04/07 03:07:10;;;;;;;14.98;5.53;;;9.20;99.90;;;;;;5164852;27;20046;-69
2022/04/07 03:09:35;;;;;;;16.17;5.18;;;9.30;99.90;;;;;;5146461;27;20051;-69
2022/04/07 03:12:01;;;;;;;15.05;5.43;;;9.40;99.90;;;;;;5157942;27;20039;-69
2022/04/07 03:14:28;;;;;;;15.20;5.75;;;9.20;99.90;;;;;;5146989;27;20043;-69
2022/04/07 03:16:54;;;;;;;12.52;5.93;;;9.40;99.90;;;;;;5164865;27;20049;-69
2022/04/07 03:19:20;;;;;;;15.02;5.78;;;9.40;99.90;;;;;;5146181;27;20049;-69
2022/04/07 03:21:46;;;;;;;13.07;4.70;;;9.40;99.90;;;;;;5146346;27;20081;-69
2022/04/07 03:24:12;;;;;;;15.77;4.90;;;9.30;99.90;;;;;;5164114;27;20047;-69
2022/04/07 03:26:38;;;;;;;13.45;5.00;;;9.50;99.90;;;;;;5146190;27;20049;-69
2022/04/07 03:29:05;;;;;;;13.07;4.90;;;9.50;99.90;;;;;;5145335;27;20073;-69
2022/04/07 03:31:31;;;;;;;17.83;4.60;;;9.30;99.90;;;;;;5145715;27;20043;-69
2022/04/07 03:33:57;;;;;;;11.68;3.85;;;9.40;99.90;;;;;;5146285;27;20045;-69
2022/04/07 03:36:22;;;;;;;15.77;4.25;;;9.40;99.90;;;;;;5144849;27;20062;-69
2022/04/07 03:38:51;;;;;;;12.85;3.92;;;9.20;99.90;;;;;;5143907;28;20147;-69
2022/04/07 03:41:17;;;;;;;12.48;4.50;;;9.10;99.90;;;;;;5125765;28;20062;-69
2022/04/07 03:43:43;;;;;;;11.20;4.13;;;9.00;99.90;;;;;;5142233;28;20046;-69
2022/04/07 03:46:09;;;;;;;11.57;4.53;;;9.20;99.90;;;;;;5126225;28;20146;-69
2022/04/07 03:48:36;;;;;;;10.75;4.68;;;9.00;99.90;;;;;;5143340;28;20188;-69
2022/04/07 03:51:02;;;;;;;8.95;4.15;;;9.00;99.90;;;;;;5125470;28;20047;-69
2022/04/07 03:53:28;;;;;;;11.18;4.47;;;9.10;99.90;;;;;;5125637;28;20387;-69
2022/04/07 03:55:54;;;;;;;9.85;4.88;;;9.20;99.90;;;;;;5129058;27;20130;-69
2022/04/07 03:58:20;;;;;;;10.65;4.10;;;8.90;99.90;;;;;;5148537;27;20046;-69
2022/04/07 04:00:45;;;;;;;11.00;3.47;;;9.10;99.90;;;;;;5113491;27;20047;-69
2022/04/07 04:03:11;;;;;;;9.35;3.05;;;9.10;99.90;;;;;;5128941;27;20067;-69
2022/04/07 04:05:37;;;;;;;11.23;3.45;;;9.10;99.90;;;;;;5136370;27;20059;-69
2022/04/07 04:08:03;;;;;;;10.82;3.50;;;9.20;99.90;;;;;;5147017;27;20085;-69
2022/04/07 04:10:29;;;;;;;11.82;3.85;;;9.00;99.90;;;;;;5130110;27;20098;-69
2022/04/07 04:12:55;;;;;;;8.30;3.22;;;9.10;99.90;;;;;;5148720;27;20035;-69
2022/04/07 04:15:20;;;;;;;9.90;4.00;;;8.90;99.90;;;;;;5093660;27;20429;-69
2022/04/07 04:17:46;;;;;;;10.98;3.92;;;8.90;99.90;;;;;;5146309;27;20043;-69
2022/04/07 04:20:12;;;;;;;11.07;5.47;;;9.10;99.90;;;;;;5128928;27;20139;-69
2022/04/07 04:22:38;;;;;;;16.10;4.82;;;9.00;99.90;;;;;;5128647;27;20067;-69
2022/04/07 04:25:05;;;;;;;11.18;4.43;;;9.20;99.90;;;;;;5128966;27;20058;-69
2022/04/07 04:27:30;;;;;;;15.55;4.15;;;9.20;99.90;;;;;;5129151;27;20050;-69
2022/04/07 04:29:56;;;;;;;17.83;5.32;;;9.10;99.90;;;;;;5144640;27;20099;-69
2022/04/07 04:32:22;;;;;;;18.17;5.05;;;9.20;99.90;;;;;;5122689;27;20043;-69
2022/04/07 04:34:48;;;;;;;21.90;5.03;;;9.10;99.90;;;;;;5146830;27;20066;-69
2022/04/07 04:37:14;;;;;;;19.38;5.40;;;9.20;99.90;;;;;;5147185;27;20081;-69
2022/04/07 04:39:39;;;;;;;13.65;4.85;;;9.20;99.90;;;;;;5128872;27;20053;-69
2022/04/07 04:42:05;;;;;;;15.18;4.75;;;9.10;99.90;;;;;;5126677;27;20086;-69
2022/04/07 04:44:32;;;;;;;16.58;4.60;;;9.10;99.90;;;;;;5121351;27;20131;-69
2022/04/07 04:46:58;;;;;;;13.45;4.68;;;9.20;99.90;;;;;;5112133;27;20043;-69
2022/04/07 04:49:23;;;;;;;27.40;5.63;;;9.30;99.90;;;;;;5148318;27;20075;-69
2022/04/07 04:51:49;;;;;;;18.73;4.72;;;9.00;99.90;;;;;;5129300;27;20051;-69
2022/04/07 04:54:15;;;;;;;18.40;4.50;;;9.30;99.90;;;;;;5141958;27;20039;-69
2022/04/07 04:56:41;;;;;;;22.05;5.25;;;9.20;99.90;;;;;;5128253;27;20055;-69
2022/04/07 04:59:08;;;;;;;18.15;3.80;;;9.40;99.90;;;;;;5127321;27;20120;-69
2022/04/07 05:01:33;;;;;;;16.02;4.60;;;9.30;99.90;;;;;;5121033;27;20244;-69
2022/04/07 05:03:59;;;;;;;18.95;5.18;;;9.20;99.90;;;;;;5144857;27;20038;-69
2022/04/07 05:06:25;;;;;;;18.77;4.85;;;9.20;99.90;;;;;;5127487;27;20398;-69
2022/04/07 05:08:51;;;;;;;20.23;4.88;;;9.20;99.90;;;;;;5105797;27;20071;-69
2022/04/07 05:11:17;;;;;;;18.08;5.20;;;9.60;99.90;;;;;;5123131;27;20051;-69
2022/04/07 05:13:42;;;;;;;21.10;5.10;;;9.40;99.90;;;;;;5126903;27;20510;-69
2022/04/07 05:16:09;;;;;;;19.17;5.20;;;9.30;99.90;;;;;;5125963;27;20580;-69
2022/04/07 05:18:35;;;;;;;25.08;5.97;;;9.10;99.90;;;;;;5108158;27;20035;-71
2022/04/07 05:21:01;;;;;;;15.63;5.30;;;8.80;99.90;;;;;;5108390;27;20074;-71
2022/04/07 05:23:27;;;;;;;18.67;5.85;;;8.90;99.90;;;;;;5143722;27;20038;-71
2022/04/07 05:25:52;;;;;;;23.00;7.00;;;8.90;99.90;;;;;;5125477;27;20050;-71
2022/04/07 05:28:18;;;;;;;18.83;6.53;;;9.10;99.90;;;;;;5125235;27;20051;-71
2022/04/07 05:30:44;;;;;;;14.10;6.53;;;8.90;99.90;;;;;;5140814;27;20046;-71
2022/04/07 05:33:11;;;;;;;18.55;6.85;;;8.80;99.90;;;;;;5126622;27;20054;-71
2022/04/07 05:35:37;;;;;;;23.20;7.15;;;8.90;99.90;;;;;;5110738;27;20035;-71
2022/04/07 05:38:03;;;;;;;17.55;6.40;;;8.70;99.90;;;;;;5131001;27;20043;-70
2022/04/07 05:40:29;;;;;;;19.15;7.45;;;9.00;99.90;;;;;;5143804;27;20043;-71
2022/04/07 05:42:56;;;;;;;19.20;6.65;;;9.10;99.90;;;;;;5126191;27;20489;-71
2022/04/07 05:45:22;;;;;;;20.13;7.60;;;9.10;99.90;;;;;;5109120;27;20042;-71
2022/04/07 05:47:48;;;;;;;15.75;5.60;;;9.10;99.90;;;;;;5127014;27;20065;-75
2022/04/07 05:50:14;;;;;;;15.98;6.30;;;8.80;99.90;;;;;;5124359;27;20092;-74
2022/04/07 05:52:40;;;;;;;12.35;4.72;;;8.90;99.90;;;;;;5119015;27;20046;-73
2022/04/07 05:55:07;;;;;;;11.18;5.63;;;9.20;99.90;;;;;;5119344;27;20039;-73
2022/04/07 05:57:32;;;;;;;20.63;7.15;;;9.10;99.90;;;;;;5123106;27;20043;-73
2022/04/07 06:00:11;;;;;;;19.15;7.28;;;9.10;99.90;;;;;;5119728;27;20058;-73
2022/04/07 06:02:39;;;;;;;16.98;5.90;;;8.90;99.90;;;;;;5140561;27;20039;-75
2022/04/07 06:05:09;;;;;;;12.23;6.40;;;8.80;99.90;;;;;;5137844;27;20045;-74
2022/04/07 06:07:35;;;;;;;;;;;8.80;99.90;;;;;;5105107;27;20151;-74
2022/04/07 06:10:02;;;;;;;21.15;1.90;;;7.50;99.90;;;;;;5122296;27;19919;-80
2022/04/07 06:12:28;;;;;;;10.30;1.00;;;5.90;99.90;;;;;;5104197;27;20577;-73
2022/04/07 06:14:53;;;;;;;3.92;1.52;;;5.20;99.90;;;;;;5142592;27;20070;-75
2022/04/07 06:17:19;;;;;;;1.48;0.70;;;5.00;99.90;;;;;;5096879;27;20047;-76
2022/04/07 06:19:45;;;;;;;1.77;0.70;;;5.00;99.90;;;;;;5068335;28;20069;-77
2022/04/07 06:22:12;;;;;;;1.48;0.95;;;5.20;99.90;;;;;;5100887;27;20542;-73
2022/04/07 06:24:38;;;;;;;6.75;1.13;;;5.10;99.90;;;;;;5110870;27;20045;-76
2022/04/07 06:27:04;;;;;;;4.90;0.82;;;5.00;99.90;;;;;;5118777;27;20043;-77
2022/04/07 06:29:29;;;;;;;8.68;1.30;;;5.30;99.90;;;;;;5089982;27;20047;-77
2022/04/07 06:31:55;;;;;;;7.10;1.20;;;5.20;99.90;;;;;;5103217;27;20395;-78
2022/04/07 06:34:21;;;;;;;7.90;1.20;;;5.10;99.90;;;;;;5072409;27;20052;-78
2022/04/07 06:36:47;;;;;;;7.10;1.40;;;5.30;99.90;;;;;;5119806;28;20071;-78
2022/04/07 06:39:13;;;;;;;9.02;1.40;;;5.40;99.90;;;;;;5111120;28;20039;-80
2022/04/07 06:41:39;;;;;;;6.30;1.50;;;5.30;99.90;;;;;;5104590;28;20132;-79
2022/04/07 06:44:05;;;;;;;16.65;1.63;;;5.10;99.90;;;;;;5110720;27;20528;-79
2022/04/07 06:46:32;;;;;;;14.35;1.40;;;5.30;99.90;;;;;;5119005;28;20092;-76
2022/04/07 06:48:59;;;;;;;11.38;1.60;;;5.20;99.90;;;;;;5105998;28;20052;-76
2022/04/07 06:51:25;;;;;;;9.55;1.45;;;4.90;99.90;;;;;;5099578;28;20039;-77
2022/04/07 06:53:50;;;;;;;2.95;1.13;;;5.10;99.90;;;;;;5108864;28;20558;-81
2022/04/07 06:56:16;;;;;;;3.15;1.00;;;5.00;99.90;;;;;;5104186;28;20031;-77
2022/04/07 06:58:42;;;;;;;9.52;1.98;;;4.90;99.90;;;;;;5108085;28;20094;-76
2022/04/07 07:01:08;;;;;;;5.80;1.20;;;5.20;99.90;;;;;;5118920;28;20050;-76
2022/04/07 07:03:34;;;;;;;6.30;1.23;;;5.30;99.90;;;;;;5093964;28;20043;-77
2022/04/07 07:06:00;;;;;;;8.63;1.30;;;5.20;99.90;;;;;;5100029;27;20062;-76
2022/04/07 07:08:26;;;;;;;9.02;2.45;;;5.20;99.90;;;;;;5128643;27;20072;-79
2022/04/07 07:10:52;;;;;;;3.13;1.23;;;5.10;99.90;;;;;;5103388;28;20047;-77
2022/04/07 07:13:23;;;;;;;4.75;1.38;;;5.10;99.90;;;;;;5108759;28;20081;-72
2022/04/07 07:15:49;;;;;;;6.93;0.90;;;5.20;99.90;;;;;;5113313;28;20043;-78
2022/04/07 07:18:16;;;;;;;3.78;1.10;;;5.20;99.90;;;;;;5102468;27;20084;-79
2022/04/07 07:20:42;;;;;;;4.10;1.00;;;5.20;99.90;;;;;;5107803;28;20616;-80
2022/04/07 07:23:08;;;;;;;3.92;1.13;;;5.30;99.90;;;;;;5106248;27;20547;-81
2022/04/07 07:25:35;;;;;;;3.75;1.25;;;5.30;99.90;;;;;;5116184;28;20150;-82
2022/04/07 07:28:04;;;;;;;3.53;0.90;;;5.30;99.90;;;;;;5109274;27;20061;-81
2022/04/07 07:30:30;;;;;;;3.75;1.00;;;5.30;99.90;;;;;;5121996;27;20062;-83
2022/04/07 07:32:56;;;;;;;4.63;0.80;;;5.20;99.90;;;;;;5112674;27;20055;-84
2022/04/07 07:35:23;;;;;;;6.40;1.20;;;5.30;99.90;;;;;;5123243;27;20110;-81
2022/04/07 07:37:49;;;;;;;3.25;1.20;;;5.10;99.90;;;;;;5108318;27;20069;-79
2022/04/07 07:40:16;;;;;;;5.93;0.95;;;5.40;99.90;;;;;;5122650;27;20055;-81
2022/04/07 07:42:42;;;;;;;3.20;1.02;;;5.20;99.90;;;;;;5098703;27;20097;-79
2022/04/07 07:45:08;;;;;;;1.73;0.75;;;5.40;99.90;;;;;;5121372;27;20035;-76
2022/04/07 07:47:35;;;;;;;4.75;1.48;;;5.20;99.90;;;;;;5113907;27;20039;-76
2022/04/07 07:50:04;;;;;;;4.72;1.00;;;5.20;99.90;;;;;;5108555;27;20045;-73
2022/04/07 07:52:30;;;;;;;6.25;1.88;;;5.50;99.90;;;;;;5129610;27;20042;-83
2022/04/07 07:54:56;;;;;;;3.40;0.95;;;5.60;99.90;;;;;;5119238;27;20046;-79
2022/04/07 07:57:22;;;;;;;4.88;1.10;;;5.50;99.90;;;;;;5124298;27;20054;-75
2022/04/07 07:59:49;;;;;;;2.45;1.20;;;5.60;99.90;;;;;;5093156;27;20083;-79
2022/04/07 08:02:14;;;;;;;3.45;1.00;;;5.40;99.90;;;;;;5120980;27;20047;-77
2022/04/07 08:04:40;;;;;;;2.72;1.10;;;5.30;99.90;;;;;;5093651;27;20080;-77
2022/04/07 08:07:06;;;;;;;3.10;1.23;;;5.40;99.90;;;;;;5120920;27;20070;-78
2022/04/07 08:09:32;;;;;;;3.35;1.10;;;5.60;99.90;;;;;;5112316;27;20059;-78
2022/04/07 08:11:58;;;;;;;4.32;1.25;;;5.50;99.90;;;;;;5108908;27;20126;-78
2022/04/07 08:14:24;;;;;;;2.97;1.15;;;5.50;99.90;;;;;;5110183;27;20059;-77
2022/04/07 08:16:49;;;;;;;4.38;1.25;;;5.40;99.90;;;;;;5119459;27;20035;-73
2022/04/07 08:19:15;;;;;;;5.75;1.58;;;5.40;99.90;;;;;;5100016;27;20036;-77
2022/04/07 08:21:41;;;;;;;4.97;1.10;;;5.50;99.90;;;;;;5117222;27;20566;-76
2022/04/07 08:24:07;;;;;;;2.75;1.17;;;5.60;99.90;;;;;;5126088;27;20047;-75
2022/04/07 08:26:34;;;;;;;7.28;1.42;;;5.70;99.90;;;;;;5130071;27;20043;-73
2022/04/07 08:28:59;;;;;;;5.35;1.58;;;5.70;99.90;;;;;;5098134;27;20052;-74
2022/04/07 08:31:25;;;;;;;2.90;1.10;;;5.80;99.90;;;;;;5129355;27;20084;-74
2022/04/07 08:33:51;;;;;;;6.45;1.40;;;5.60;99.90;;;;;;5104456;27;20047;-74
2022/04/07 08:36:17;;;;;;;3.13;1.10;;;5.80;99.90;;;;;;5083947;27;20499;-74
2022/04/07 08:38:43;;;;;;;6.35;1.20;;;5.80;99.90;;;;;;5090104;28;20082;-73
2022/04/07 08:41:11;;;;;;;4.22;1.10;;;5.60;99.90;;;;;;5115415;27;20039;-73
2022/04/07 08:43:39;;;;;;;5.70;1.58;;;5.90;99.90;;;;;;5112374;27;20043;-73
2022/04/07 08:46:08;;;;;;;3.10;1.38;;;5.80;99.90;;;;;;5102656;27;20039;-72
2022/04/07 08:48:40;;;;;;;5.60;2.05;;;5.90;99.90;;;;;;5107894;27;20047;-73
2022/04/07 08:51:06;;;;;;;4.00;1.10;;;6.40;99.90;;;;;;5131705;27;20046;-73
2022/04/07 08:53:37;;;;;;;4.70;1.40;;;6.40;99.90;;;;;;5107337;27;20058;-74
2022/04/07 08:56:04;;;;;;;1.58;0.93;;;6.00;99.90;;;;;;5112707;27;20602;-73
2022/04/07 08:58:30;;;;;;;4.18;1.13;;;6.40;99.90;;;;;;5085967;27;20103;-72
2022/04/07 09:00:56;;;;;;;5.78;1.40;;;6.30;99.90;;;;;;5107087;27;20542;-73
2022/04/07 09:03:23;;;;;;;5.45;1.30;;;6.90;99.90;;;;;;5106501;27;20090;-73
2022/04/07 09:06:00;;;;;;;3.97;1.60;;;6.90;99.90;;;;;;5116842;27;20031;-73
2022/04/07 09:08:29;;;;;;;4.57;1.02;;;7.20;99.90;;;;;;5109251;27;20590;-73
2022/04/07 09:10:55;;;;;;;4.38;1.45;;;7.30;99.90;;;;;;5086752;27;20082;-73
2022/04/07 09:13:21;;;;;;;4.28;1.40;;;7.50;99.90;;;;;;5104757;27;20040;-73
2022/04/07 09:15:49;;;;;;;4.25;1.10;;;7.70;99.90;;;;;;5102232;27;20043;-73
2022/04/07 09:18:25;;;;;;;3.60;1.15;;;7.70;99.90;;;;;;5108901;27;21730;-73
2022/04/07 09:20:52;;;;;;;4.60;1.50;;;7.80;99.90;;;;;;5126991;27;20090;-73
2022/04/07 09:23:18;;;;;;;3.95;1.30;;;7.90;99.90;;;;;;5112586;27;20079;-73
2022/04/07 09:25:47;;;;;;;9.15;1.73;;;8.20;99.90;;;;;;5116248;27;20070;-73
2022/04/07 09:28:23;;;;;;;7.47;1.58;;;8.20;99.90;;;;;;5113310;27;20051;-72
2022/04/07 09:30:49;;;;;;;4.10;1.20;;;8.30;99.90;;;;;;5111555;27;20047;-72
2022/04/07 09:33:22;;;;;;;6.13;1.50;;;8.40;99.90;;;;;;5102666;27;20058;-73
2022/04/07 09:36:10;;;;;;;5.95;1.40;;;8.40;99.90;;;;;;5119095;27;20105;-73
2022/04/07 09:38:38;;;;;;;11.43;1.65;;;8.60;99.90;;;;;;5123670;27;20043;-72
2022/04/07 09:41:06;;;;;;;4.68;1.63;;;8.90;99.90;;;;;;5155133;27;20057;-71
2022/04/07 09:43:53;;;;;;;4.68;1.13;;;8.90;99.90;;;;;;5130322;27;20047;-68
2022/04/07 09:46:20;;;;;;;6.30;1.40;;;9.10;99.90;;;;;;5138536;27;20183;-69
2022/04/07 09:49:09;;;;;;;3.88;1.30;;;9.30;99.90;;;;;;5119910;27;20054;-70
2022/04/07 09:51:48;;;;;;;8.60;1.98;;;9.20;99.90;;;;;;5141992;27;20053;-69
2022/04/07 09:54:16;;;;;;;11.63;1.88;;;9.30;99.90;;;;;;5129931;27;20047;-69
2022/04/07 09:56:43;;;;;;;9.68;2.05;;;9.20;99.90;;;;;;5138734;27;20043;-70
2022/04/07 09:59:10;;;;;;;7.88;1.90;;;9.20;99.90;;;;;;5138952;27;20047;-67
2022/04/07 10:01:38;;;;;;;6.97;1.65;;;9.30;99.90;;;;;;5122236;27;20107;-67
2022/04/07 10:04:08;;;;;;;8.57;1.83;;;9.30;99.90;;;;;;5148708;27;20047;-75
2022/04/07 10:06:35;;;;;;;4.93;1.45;;;9.30;99.90;;;;;;5133071;27;20112;-71
2022/04/07 10:09:03;;;;;;;8.50;1.65;;;9.30;99.90;;;;;;5128151;27;20395;-72
2022/04/07 10:11:33;;;;;;;7.97;1.90;;;9.40;99.90;;;;;;5128264;27;21067;-70
2022/04/07 10:13:59;;;;;;;13.20;2.67;;;9.60;99.90;;;;;;5108825;27;20047;-70
2022/04/07 10:16:26;;;;;;;7.70;1.80;;;9.40;99.90;;;;;;5133991;27;20284;-70
2022/04/07 10:19:16;;;;;;;9.60;1.83;;;9.40;99.90;;;;;;5128893;27;20036;-70
2022/04/07 10:22:01;;;;;;;11.02;2.15;;;9.70;99.90;;;;;;5121718;27;20042;-70
2022/04/07 10:24:37;;;;;;;7.43;2.47;;;9.90;99.90;;;;;;5113714;27;20047;-71
2022/04/07 10:27:09;;;;;;;6.95;1.73;;;10.00;99.90;;;;;;5136882;27;20046;-71
2022/04/07 10:29:38;;;;;;;9.18;2.30;;;10.00;99.90;;;;;;5134651;27;20261;-70
2022/04/07 10:32:12;;;;;;;9.88;2.55;;;10.00;99.90;;;;;;5145874;27;20217;-70
2022/04/07 10:34:56;;;;;;;11.90;2.13;;;10.10;99.90;;;;;;5126181;27;20039;-71
2022/04/07 10:37:44;;;;;;;9.63;2.47;;;10.20;99.90;;;;;;5144657;27;20110;-71
2022/04/07 10:40:35;;;;;;;10.73;1.92;;;10.10;99.90;;;;;;5136695;27;20050;-71
2022/04/07 10:43:21;;;;;;;11.02;2.17;;;10.20;99.90;;;;;;5119367;28;20080;-70
2022/04/07 10:46:02;;;;;;;8.02;1.83;;;10.20;99.90;;;;;;5093305;27;20054;-74
2022/04/07 10:48:32;;;;;;;10.98;2.03;;;10.30;99.90;;;;;;5121089;27;20054;-75
2022/04/07 10:51:02;;;;;;;;;;;10.30;99.90;;;;;;5113058;28;20046;-74
2022/04/07 10:54:01;;;;;;;8.25;2.10;;;10.30;99.90;;;;;;5128250;27;19919;-73
2022/04/07 10:56:32;;;;;;;14.48;2.42;;;10.30;99.90;;;;;;5135353;27;20072;-73
2022/04/07 10:59:14;;;;;;;10.52;2.55;;;10.50;99.90;;;;;;5131197;27;20137;-73
2022/04/07 11:01:40;;;;;;;10.57;1.73;;;10.50;99.90;;;;;;5130628;27;20072;-73
2022/04/07 11:04:18;;;;;;;10.65;1.92;;;10.50;99.90;;;;;;5130069;27;20046;-73
2022/04/07 11:07:05;;;;;;;12.23;2.60;;;10.60;99.90;;;;;;5129027;27;20050;-73
2022/04/07 11:09:55;;;;;;;13.80;2.92;;;10.60;99.90;;;;;;5111245;27;20071;-72
2022/04/07 11:12:32;;;;;;;12.05;3.33;;;10.40;99.90;;;;;;5095369;28;20083;-72
2022/04/07 11:15:03;;;;;;;6.90;2.05;;;10.10;99.90;;;;;;5139037;27;20140;-73
2022/04/07 11:17:46;;;;;;;14.05;3.63;;;10.00;99.90;;;;;;5152943;27;20049;-74
2022/04/07 11:20:18;;;;;;;11.48;3.33;;;9.40;99.90;;;;;;5112597;27;20058;-74
2022/04/07 11:22:54;;;;;;;18.75;3.60;;;9.20;99.90;;;;;;5140897;27;20042;-76
2022/04/07 11:25:30;;;;;;;14.18;2.60;;;9.00;99.90;;;;;;5130297;27;20146;-74
2022/04/07 11:28:03;;;;;;;13.45;3.35;;;8.70;99.90;;;;;;5129747;27;20044;-74
2022/04/07 11:30:41;;;;;;;14.68;2.90;;;8.70;99.90;;;;;;5113965;27;20043;-75
2022/04/07 11:33:13;;;;;;;13.18;3.28;;;8.30;99.90;;;;;;5137284;27;20062;-75
2022/04/07 11:35:39;;;;;;;10.00;2.47;;;7.90;99.90;;;;;;5126438;27;20055;-74
2022/04/07 11:38:06;;;;;;;17.50;3.08;;;8.20;99.90;;;;;;5149103;27;20057;-74
2022/04/07 11:40:31;;;;;;;19.17;3.75;;;8.50;99.90;;;;;;5119217;27;20522;-73
2022/04/07 11:42:58;;;;;;;12.15;2.90;;;8.80;99.90;;;;;;5149753;27;20046;-75
2022/04/07 11:45:31;;;;;;;12.07;2.90;;;9.00;99.90;;;;;;5126083;27;20054;-74
2022/04/07 11:47:57;;;;;;;12.10;2.90;;;9.10;99.90;;;;;;5135866;27;20026;-74
2022/04/07 11:50:23;;;;;;;11.82;2.97;;;9.20;99.90;;;;;;5125184;27;20055;-74
2022/04/07 11:52:50;;;;;;;20.75;2.80;;;9.30;99.90;;;;;;5147594;27;20039;-76
2022/04/07 11:55:27;;;;;;;17.40;3.65;;;9.30;99.90;;;;;;5131923;27;22366;-75
2022/04/07 11:57:59;;;;;;;12.50;3.45;;;9.40;99.90;;;;;;5148132;27;20881;-75
2022/04/07 12:00:32;;;;;;;15.48;2.97;;;9.60;99.90;;;;;;5132031;27;20103;-76
2022/04/07 12:03:07;;;;;;;11.82;2.47;;;9.50;99.90;;;;;;5157856;27;20033;-76
2022/04/07 12:05:39;;;;;;;15.73;2.72;;;9.60;99.90;;;;;;5140684;27;20057;-77
2022/04/07 12:08:13;;;;;;;20.52;3.47;;;9.60;99.90;;;;;;5158180;27;20458;-78
2022/04/07 12:10:45;;;;;;;15.10;3.20;;;9.10;99.90;;;;;;5132683;27;20075;-76
2022/04/07 12:13:11;;;;;;;16.52;3.17;;;8.60;99.90;;;;;;5153850;27;20107;-76
2022/04/07 12:15:38;;;;;;;18.17;3.95;;;8.50;99.90;;;;;;5145133;27;20046;-74
2022/04/07 12:18:08;;;;;;;13.00;3.20;;;8.60;99.90;;;;;;5160441;27;20055;-75
2022/04/07 12:20:37;;;;;;;;;;;8.80;99.90;;;;;;5119807;27;20043;-75
2022/04/07 12:23:14;;;;;;;12.25;2.40;;;9.00;99.90;;;;;;5133846;27;19946;-75
2022/04/07 12:25:42;;;;;;;14.35;3.72;;;9.40;99.90;;;;;;5131006;27;20075;-74
2022/04/07 12:28:12;;;;;;;11.95;2.70;;;9.50;99.90;;;;;;5132369;27;20302;-75
2022/04/07 12:30:45;;;;;;;19.08;3.63;;;9.60;99.90;;;;;;5130725;27;20046;-74
2022/04/07 12:33:10;;;;;;;11.32;2.60;;;9.70;99.90;;;;;;5129289;27;20059;-76
2022/04/07 12:35:46;;;;;;;13.65;2.67;;;9.70;99.90;;;;;;5123292;27;20379;-74
2022/04/07 12:38:12;;;;;;;16.17;2.30;;;9.60;99.90;;;;;;5123279;27;20048;-75
2022/04/07 12:40:39;;;;;;;14.80;2.50;;;9.60;99.90;;;;;;5097435;27;20078;-75
2022/04/07 12:43:05;;;;;;;9.30;2.63;;;9.60;99.90;;;;;;5120229;27;20115;-75
2022/04/07 12:45:30;;;;;;;15.38;2.65;;;9.80;99.90;;;;;;5109500;27;20134;-75
2022/04/07 12:48:17;;;;;;;12.43;3.05;;;10.00;99.90;;;;;;5109088;27;20044;-74
2022/04/07 12:50:43;;;;;;;10.00;2.53;;;10.00;99.90;;;;;;5108763;27;20161;-74
2022/04/07 12:53:34;;;;;;;11.48;2.40;;;10.00;99.90;;;;;;5118335;27;20063;-77
2022/04/07 12:56:16;;;;;;;9.60;2.20;;;10.10;99.90;;;;;;5093960;27;20106;-76